createdAt,value
2023-05-16T00:00:00.000Z,11.88
2023-05-16T00:15:00.000Z,11.65
2023-05-16T00:30:00.000Z,11.67
2023-05-16T00:45:00.000Z,11.67
2023-05-16T01:00:00.000Z,11.64
2023-05-16T01:15:00.000Z,11.62
2023-05-16T01:30:00.000Z,11.59
2023-05-16T01:45:00.000Z,11.58
2023-05-16T02:00:00.000Z,11.51
2023-05-16T02:15:00.000Z,11.54
2023-05-16T02:30:00.000Z,11.52
2023-05-16T02:45:00.000Z,11.46
2023-05-16T03:00:00.000Z,11.36
2023-05-16T03:15:00.000Z,11.34
2023-05-16T03:30:00.000Z,11.39
2023-05-16T03:45:00.000Z,11.36
2023-05-16T04:00:00.000Z,11.4
2023-05-16T04:15:00.000Z,11.5
2023-05-16T04:30:00.000Z,11.62
2023-05-16T04:45:00.000Z,11.74
2023-05-16T05:00:00.000Z,12.01
2023-05-16T05:15:00.000Z,12.47
2023-05-16T05:30:00.000Z,13.04
2023-05-16T05:45:00.000Z,13.2
2023-05-16T06:00:00.000Z,13.3
2023-05-16T06:15:00.000Z,13.53
2023-05-16T06:30:00.000Z,13.64
2023-05-16T06:45:00.000Z,13.65
2023-05-16T07:00:00.000Z,13.94
2023-05-16T07:15:00.000Z,14.13
2023-05-16T07:30:00.000Z,14.55
2023-05-16T07:45:00.000Z,14.95
2023-05-16T08:00:00.000Z,15.65
2023-05-16T08:15:00.000Z,15.34
2023-05-16T08:30:00.000Z,15.39
2023-05-16T08:45:00.000Z,15.76
2023-05-16T09:00:00.000Z,15.61
2023-05-16T09:15:00.000Z,15.44
2023-05-16T09:30:00.000Z,15.47
2023-05-16T09:45:00.000Z,15.5
2023-05-16T10:00:00.000Z,15.71
2023-05-16T10:15:00.000Z,15.64
2023-05-16T10:30:00.000Z,15.4
2023-05-16T10:45:00.000Z,14.8
2023-05-16T11:00:00.000Z,14.49
2023-05-16T11:15:00.000Z,14.73
2023-05-16T11:30:00.000Z,14.43
2023-05-16T11:45:00.000Z,14.17
2023-05-16T12:00:00.000Z,13.91
2023-05-16T12:15:00.000Z,14.15
2023-05-16T12:30:00.000Z,14.55
2023-05-16T12:45:00.000Z,15.06
2023-05-16T13:00:00.000Z,15
2023-05-16T13:15:00.000Z,15.02
2023-05-16T13:30:00.000Z,14.5
2023-05-16T13:45:00.000Z,14.22
2023-05-16T14:00:00.000Z,13.65
2023-05-16T14:15:00.000Z,13.53
2023-05-16T14:30:00.000Z,13.55
2023-05-16T14:45:00.000Z,13.58
2023-05-16T15:00:00.000Z,13.52
2023-05-16T15:15:00.000Z,13.48
2023-05-16T15:30:00.000Z,13.4
2023-05-16T15:45:00.000Z,13.57
2023-05-16T16:00:00.000Z,13.49
2023-05-16T16:15:00.000Z,13.54
2023-05-16T16:30:00.000Z,13.39
2023-05-16T16:45:00.000Z,13.03
2023-05-16T17:00:00.000Z,12.77
2023-05-16T17:15:00.000Z,12.66
2023-05-16T17:30:00.000Z,12.58
2023-05-16T17:45:00.000Z,12.44
2023-05-16T18:00:00.000Z,12.36
2023-05-16T18:15:00.000Z,12.29
2023-05-16T18:30:00.000Z,12.28
2023-05-16T18:45:00.000Z,12.22
2023-05-16T19:00:00.000Z,12.21
2023-05-16T19:15:00.000Z,12.18
2023-05-16T19:30:00.000Z,12.18
2023-05-16T19:45:00.000Z,12.19
2023-05-16T20:00:00.000Z,12.21
2023-05-16T20:15:00.000Z,12.32
2023-05-16T20:30:00.000Z,12.28
2023-05-16T20:45:00.000Z,12.19
2023-05-16T21:00:00.000Z,12.13
2023-05-16T21:15:00.000Z,11.98
2023-05-16T21:30:00.000Z,11.9
2023-05-16T21:45:00.000Z,11.78
2023-05-16T22:00:00.000Z,11.7
2023-05-16T22:15:00.000Z,11.69
2023-05-16T22:30:00.000Z,11.74
2023-05-16T22:45:00.000Z,11.73
2023-05-16T23:00:00.000Z,11.72
2023-05-16T23:15:00.000Z,11.77
2023-05-16T23:30:00.000Z,11.59
2023-05-16T23:45:00.000Z,11.43
